Villarejo de Salvanes, Spain
Current Conditions -  °F | °C
As of 2:00 PM on Saturday 22 Nov 2014 (Local Time) from LETO Reporting Station
Clear Clear  
Wind Chill: 64°   Ceiling: Unl
Heat Index: 64°   Visibility: 6mi
Dew Point: 50°   Wind: 3mph
Humidity: 59%   Direction: 60°ENE
Pressure: 29.94"   Gusts: NA
Location:  40.17°N, 3.27°W
Report Text: LETO 221300Z 06003KT CAVOK 18/10 Q1014 NOSIG
Loading
Personal Weather Stations






























Interactive Weather Map New forecast layout! Learn more

10-Day Weather Forecast

Advertisements
Track Severe Weather on mobile